createdAt,value
2017-01-27T00:00:21.106Z,0
2017-01-27T00:01:35.479Z,0
2017-01-27T00:02:49.860Z,0
2017-01-27T00:04:04.205Z,0
2017-01-27T00:05:17.327Z,0
2017-01-27T00:06:31.684Z,0
2017-01-27T00:07:46.027Z,0
2017-01-27T00:09:00.415Z,0
2017-01-27T00:10:14.736Z,0
2017-01-27T00:11:29.112Z,0
2017-01-27T00:12:43.452Z,0
2017-01-27T00:13:57.829Z,0
2017-01-27T00:15:11.585Z,0
2017-01-27T00:16:25.987Z,0
2017-01-27T00:17:39.702Z,0
2017-01-27T00:18:54.051Z,0
2017-01-27T00:20:07.787Z,0
2017-01-27T00:21:22.160Z,0
2017-01-27T00:22:35.881Z,0
2017-01-27T00:23:50.281Z,0
2017-01-27T00:25:04.637Z,0
2017-01-27T00:26:18.373Z,0
2017-01-27T00:27:32.744Z,0
2017-01-27T00:28:47.098Z,0
2017-01-27T00:30:01.473Z,0
2017-01-27T00:31:15.200Z,0
2017-01-27T00:32:28.925Z,0
2017-01-27T00:33:43.283Z,0
2017-01-27T00:34:57.656Z,0
2017-01-27T00:36:11.404Z,0
2017-01-27T00:37:25.182Z,0
2017-01-27T00:38:39.567Z,0
2017-01-27T00:39:53.929Z,0
2017-01-27T00:41:07.697Z,0
2017-01-27T00:42:22.102Z,0
2017-01-27T00:43:36.475Z,0
2017-01-27T00:44:50.187Z,0
2017-01-27T00:46:04.582Z,0
2017-01-27T00:47:18.345Z,0
2017-01-27T00:48:32.709Z,0
2017-01-27T00:49:47.044Z,0
2017-01-27T00:51:01.406Z,0
2017-01-27T00:52:13.857Z,0
2017-01-27T00:53:28.275Z,0
2017-01-27T00:54:42.675Z,0
2017-01-27T00:55:57.024Z,0
2017-01-27T00:57:11.394Z,0
2017-01-27T00:58:25.135Z,0
2017-01-27T00:59:39.478Z,0
2017-01-27T01:00:53.181Z,0
2017-01-27T01:02:07.548Z,0
2017-01-27T01:03:21.258Z,0
2017-01-27T01:04:34.967Z,0
2017-01-27T01:05:49.332Z,0
2017-01-27T01:07:02.416Z,0
2017-01-27T01:08:16.787Z,0
2017-01-27T01:09:31.144Z,0
2017-01-27T01:10:45.513Z,0
2017-01-27T01:11:59.910Z,0
2017-01-27T01:13:14.283Z,0
2017-01-27T01:14:28.661Z,0
2017-01-27T01:15:42.997Z,0
2017-01-27T01:16:56.091Z,0
2017-01-27T01:18:10.474Z,0
2017-01-27T01:19:24.846Z,0
2017-01-27T01:20:39.234Z,0
2017-01-27T01:21:52.949Z,0
2017-01-27T01:23:07.294Z,0
2017-01-27T01:24:21.690Z,0
2017-01-27T01:25:35.459Z,0
2017-01-27T01:26:49.832Z,0
2017-01-27T01:28:04.186Z,0
2017-01-27T01:29:18.564Z,0
2017-01-27T01:30:32.250Z,0
2017-01-27T01:31:46.643Z,0
2017-01-27T01:33:01.000Z,0
2017-01-27T01:34:14.079Z,0
2017-01-27T01:35:28.463Z,0
2017-01-27T01:36:42.832Z,0
2017-01-27T01:37:57.164Z,0
2017-01-27T01:39:11.557Z,0
2017-01-27T01:40:24.631Z,0
2017-01-27T01:41:38.981Z,0
2017-01-27T01:42:53.567Z,0
2017-01-27T01:44:07.993Z,0
2017-01-27T01:45:22.345Z,0
2017-01-27T01:46:36.104Z,0
2017-01-27T01:47:50.462Z,0
2017-01-27T01:49:04.201Z,0
2017-01-27T01:50:17.908Z,0
2017-01-27T01:51:32.266Z,0
2017-01-27T01:52:46.667Z,0
2017-01-27T01:54:01.166Z,0
2017-01-27T01:55:14.956Z,0
2017-01-27T01:56:29.336Z,0
2017-01-27T01:57:43.710Z,0
2017-01-27T01:58:58.116Z,0
2017-01-27T02:00:11.812Z,0
2017-01-27T02:01:26.175Z,0
2017-01-27T02:02:40.534Z,0
2017-01-27T02:03:54.908Z,0
2017-01-27T02:05:08.624Z,0
2017-01-27T02:06:22.978Z,0
2017-01-27T02:07:36.914Z,0
2017-01-27T02:08:51.305Z,0
2017-01-27T02:10:05.678Z,0
2017-01-27T02:11:19.403Z,0
2017-01-27T02:12:33.776Z,0
2017-01-27T02:13:48.156Z,0
2017-01-27T02:15:02.547Z,0
2017-01-27T02:16:16.330Z,0
2017-01-27T02:17:30.747Z,0
2017-01-27T02:18:45.166Z,0
2017-01-27T02:19:59.562Z,0
2017-01-27T02:21:13.298Z,0
2017-01-27T02:22:27.663Z,0
2017-01-27T02:23:42.022Z,0
2017-01-27T02:24:56.390Z,0
2017-01-27T02:26:10.783Z,0
2017-01-27T02:27:25.152Z,0
2017-01-27T02:28:38.219Z,0
2017-01-27T02:29:52.599Z,0
2017-01-27T02:31:06.507Z,0
2017-01-27T02:32:20.249Z,0
2017-01-27T02:33:34.642Z,0
2017-01-27T02:34:49.020Z,0
2017-01-27T02:36:03.418Z,0
2017-01-27T02:37:16.520Z,0
2017-01-27T02:38:30.248Z,0
2017-01-27T02:39:43.969Z,0
2017-01-27T02:40:57.692Z,0
2017-01-27T02:42:11.420Z,0
2017-01-27T02:43:25.150Z,0
2017-01-27T02:44:39.511Z,0
2017-01-27T02:45:53.876Z,0
2017-01-27T02:47:08.238Z,0
2017-01-27T02:48:22.584Z,0
2017-01-27T02:49:37.006Z,0
2017-01-27T02:50:50.727Z,0
2017-01-27T02:52:05.112Z,0
2017-01-27T02:53:19.489Z,0
2017-01-27T02:54:33.844Z,0
2017-01-27T02:55:46.948Z,0
2017-01-27T02:57:00.675Z,0
2017-01-27T02:58:15.254Z,0
2017-01-27T02:59:29.628Z,0
2017-01-27T03:00:43.364Z,0
2017-01-27T03:01:56.487Z,0
2017-01-27T03:03:10.249Z,0
2017-01-27T03:04:24.583Z,0
2017-01-27T03:05:38.961Z,0
2017-01-27T03:06:53.330Z,0
2017-01-27T03:08:07.748Z,0
2017-01-27T03:09:21.455Z,0
2017-01-27T03:10:35.825Z,0
2017-01-27T03:11:50.170Z,0
2017-01-27T03:13:03.884Z,0
2017-01-27T03:14:18.248Z,0
2017-01-27T03:15:32.611Z,0
2017-01-27T03:16:47.002Z,0
2017-01-27T03:18:00.758Z,0
2017-01-27T03:19:14.496Z,0
2017-01-27T03:20:28.869Z,0
2017-01-27T03:21:43.247Z,0
2017-01-27T03:22:56.996Z,0
2017-01-27T03:24:11.391Z,0
2017-01-27T03:25:25.762Z,0
2017-01-27T03:26:40.150Z,0
2017-01-27T03:27:54.516Z,0
2017-01-27T03:29:08.886Z,0
2017-01-27T03:30:22.574Z,0
2017-01-27T03:31:36.987Z,0
2017-01-27T03:32:51.377Z,0
2017-01-27T03:34:05.116Z,0
2017-01-27T03:35:18.831Z,0
2017-01-27T03:36:33.218Z,0
2017-01-27T03:37:46.958Z,0
2017-01-27T03:39:01.338Z,0
2017-01-27T03:40:15.041Z,0
2017-01-27T03:41:29.411Z,0
2017-01-27T03:42:43.766Z,0
2017-01-27T03:43:58.117Z,0
2017-01-27T03:45:11.831Z,0
2017-01-27T03:46:25.577Z,0
2017-01-27T03:47:39.322Z,0
2017-01-27T03:48:53.896Z,0
2017-01-27T03:50:07.618Z,0
2017-01-27T03:51:22.033Z,0
2017-01-27T03:52:36.414Z,0
2017-01-27T03:53:50.826Z,0
2017-01-27T03:55:04.549Z,0
2017-01-27T03:56:18.917Z,0
2017-01-27T03:57:33.270Z,0
2017-01-27T03:58:46.991Z,0
2017-01-27T04:00:01.368Z,0
2017-01-27T04:01:15.704Z,0
2017-01-27T04:02:29.439Z,0
2017-01-27T04:03:43.809Z,0
2017-01-27T04:04:57.543Z,0
2017-01-27T04:06:11.273Z,0
2017-01-27T04:07:25.000Z,0
2017-01-27T04:08:38.734Z,0
2017-01-27T04:09:53.119Z,0
2017-01-27T04:11:06.857Z,0
2017-01-27T04:12:20.569Z,0
2017-01-27T04:13:34.322Z,0
2017-01-27T04:14:48.707Z,0
2017-01-27T04:16:03.088Z,0
2017-01-27T04:17:17.623Z,0
2017-01-27T04:18:32.015Z,0
2017-01-27T04:19:46.361Z,0
2017-01-27T04:21:00.745Z,0
2017-01-27T04:22:14.462Z,0
2017-01-27T04:23:28.209Z,0
2017-01-27T04:24:42.559Z,0
2017-01-27T04:25:56.924Z,0
2017-01-27T04:27:11.348Z,0
2017-01-27T04:28:25.074Z,0
2017-01-27T04:29:38.837Z,0
2017-01-27T04:30:52.551Z,0
2017-01-27T04:32:06.966Z,0
2017-01-27T04:33:21.320Z,0
2017-01-27T04:34:35.068Z,0
2017-01-27T04:35:49.462Z,0
2017-01-27T04:37:03.195Z,0
2017-01-27T04:38:17.590Z,0
2017-01-27T04:39:31.312Z,0
2017-01-27T04:40:45.669Z,0
2017-01-27T04:42:00.006Z,0
2017-01-27T04:43:13.684Z,0
2017-01-27T04:44:28.041Z,0
2017-01-27T04:45:41.773Z,0
2017-01-27T04:46:55.503Z,0
2017-01-27T04:48:13.444Z,0
2017-01-27T04:49:27.825Z,0
2017-01-27T04:50:42.206Z,0
2017-01-27T04:51:56.562Z,0
2017-01-27T04:53:10.911Z,0
2017-01-27T04:54:25.277Z,0
2017-01-27T04:55:38.989Z,0
2017-01-27T04:56:53.375Z,0
2017-01-27T04:58:07.750Z,0
2017-01-27T04:59:21.485Z,0
2017-01-27T05:00:35.193Z,0
2017-01-27T05:01:49.570Z,0
2017-01-27T05:03:03.306Z,0
2017-01-27T05:04:17.665Z,0
2017-01-27T05:05:32.007Z,0
2017-01-27T05:06:46.360Z,0
2017-01-27T05:08:00.782Z,0
2017-01-27T05:09:14.525Z,0
2017-01-27T05:10:28.233Z,0
2017-01-27T05:11:42.604Z,0
2017-01-27T05:12:56.948Z,0
2017-01-27T05:14:11.315Z,0
2017-01-27T05:15:25.663Z,0
2017-01-27T05:16:40.022Z,0
2017-01-27T05:17:53.719Z,0
2017-01-27T05:19:07.439Z,0
2017-01-27T05:20:21.170Z,0
2017-01-27T05:21:35.561Z,0
2017-01-27T05:22:49.945Z,0
2017-01-27T05:24:04.327Z,0
2017-01-27T05:25:18.662Z,0
2017-01-27T05:26:32.375Z,0
2017-01-27T05:27:46.738Z,0
2017-01-27T05:29:00.472Z,0
2017-01-27T05:30:14.850Z,0
2017-01-27T05:31:29.203Z,0
2017-01-27T05:32:43.595Z,0
2017-01-27T05:33:57.945Z,0
2017-01-27T05:35:11.671Z,0
2017-01-27T05:36:26.048Z,0
2017-01-27T05:37:39.773Z,0
2017-01-27T05:38:54.141Z,0
2017-01-27T05:40:07.862Z,0
2017-01-27T05:41:22.219Z,0
2017-01-27T05:42:36.586Z,0
2017-01-27T05:43:50.293Z,0
2017-01-27T05:45:04.036Z,0
2017-01-27T05:46:18.423Z,0
2017-01-27T05:47:32.753Z,0
2017-01-27T05:48:47.104Z,0
2017-01-27T05:50:01.472Z,0
2017-01-27T05:51:15.218Z,0
2017-01-27T05:52:28.977Z,0
2017-01-27T05:53:42.676Z,0
2017-01-27T05:54:56.393Z,0
2017-01-27T05:56:10.802Z,0
2017-01-27T05:57:24.543Z,0
2017-01-27T05:58:38.939Z,0
2017-01-27T05:59:53.340Z,0
2017-01-27T06:01:07.067Z,0
2017-01-27T06:02:21.435Z,0
2017-01-27T06:03:35.809Z,0
2017-01-27T06:04:50.152Z,0
2017-01-27T06:06:04.522Z,0
2017-01-27T06:07:18.916Z,0
2017-01-27T06:08:32.613Z,0
2017-01-27T06:09:46.351Z,0
2017-01-27T06:11:00.752Z,0
2017-01-27T06:12:14.463Z,0
2017-01-27T06:13:28.158Z,0
2017-01-27T06:14:42.500Z,0
2017-01-27T06:15:56.217Z,0
2017-01-27T06:17:10.594Z,0
2017-01-27T06:18:24.294Z,0
2017-01-27T06:19:38.681Z,0
2017-01-27T06:20:53.028Z,0
2017-01-27T06:22:07.399Z,0
2017-01-27T06:23:21.133Z,0
2017-01-27T06:24:35.510Z,0
2017-01-27T06:25:49.897Z,0
2017-01-27T06:27:04.267Z,0
2017-01-27T06:28:18.624Z,0
2017-01-27T06:29:33.006Z,0
2017-01-27T06:30:47.445Z,0
2017-01-27T06:32:01.844Z,0
2017-01-27T06:33:15.540Z,0
2017-01-27T06:34:29.238Z,0
2017-01-27T06:35:43.572Z,0
2017-01-27T06:36:57.912Z,0
2017-01-27T06:38:10.990Z,0
2017-01-27T06:39:24.071Z,0
2017-01-27T06:40:38.436Z,0
2017-01-27T06:41:52.803Z,0
2017-01-27T06:43:07.170Z,0
2017-01-27T06:44:21.547Z,0
2017-01-27T06:45:35.911Z,0
2017-01-27T06:46:49.617Z,0
2017-01-27T06:48:03.971Z,0
2017-01-27T06:49:17.696Z,0
2017-01-27T06:50:32.069Z,0
2017-01-27T06:51:46.413Z,0
2017-01-27T06:53:00.166Z,0
2017-01-27T06:54:14.574Z,0
2017-01-27T06:55:28.946Z,0
2017-01-27T06:56:42.649Z,0
2017-01-27T06:57:56.363Z,0
2017-01-27T06:59:10.745Z,0
2017-01-27T07:00:24.455Z,0
2017-01-27T07:01:38.859Z,0
2017-01-27T07:02:53.261Z,0
2017-01-27T07:04:06.976Z,0
2017-01-27T07:05:21.371Z,0
2017-01-27T07:06:35.787Z,0
2017-01-27T07:07:50.189Z,0
2017-01-27T07:09:04.560Z,0
2017-01-27T07:10:18.947Z,0
2017-01-27T07:11:33.284Z,0
2017-01-27T07:12:47.670Z,0
2017-01-27T07:14:00.799Z,0
2017-01-27T07:15:14.514Z,0
2017-01-27T07:16:28.894Z,0
2017-01-27T07:17:43.270Z,0
2017-01-27T07:18:57.638Z,0
2017-01-27T07:20:11.997Z,0
2017-01-27T07:21:26.394Z,0
2017-01-27T07:53:44.330Z,0
2017-01-27T07:54:58.666Z,0
2017-01-27T07:56:13.081Z,0
2017-01-27T07:57:25.503Z,0
2017-01-27T07:58:39.220Z,0
2017-01-27T07:59:53.611Z,0
2017-01-27T08:01:07.311Z,0
2017-01-27T08:02:21.071Z,0
2017-01-27T08:03:35.499Z,0
2017-01-27T08:04:49.899Z,0
2017-01-27T08:06:04.273Z,0
2017-01-27T08:07:17.990Z,0
2017-01-27T08:08:32.402Z,0
2017-01-27T08:09:46.788Z,0
2017-01-27T08:11:01.161Z,0
2017-01-27T08:12:15.533Z,0
2017-01-27T08:13:29.925Z,0
2017-01-27T08:14:43.676Z,0
2017-01-27T08:15:57.402Z,0
2017-01-27T08:17:11.742Z,0
2017-01-27T08:18:25.484Z,0
2017-01-27T08:19:39.842Z,0
2017-01-27T08:20:54.233Z,0
2017-01-27T08:22:07.930Z,0
2017-01-27T08:23:22.273Z,0
2017-01-27T08:24:36.000Z,0
2017-01-27T08:25:50.395Z,0
2017-01-27T08:27:04.758Z,0
2017-01-27T08:28:18.828Z,0
2017-01-27T08:29:33.205Z,0
2017-01-27T08:30:47.566Z,0
2017-01-27T08:32:00.672Z,0
2017-01-27T08:33:15.063Z,0
2017-01-27T08:34:29.430Z,0
2017-01-27T08:35:43.813Z,0
2017-01-27T08:36:57.526Z,5
2017-01-27T08:38:11.876Z,5
2017-01-27T08:39:25.601Z,5
2017-01-27T08:40:39.303Z,5
2017-01-27T08:41:53.694Z,10
2017-01-27T08:43:07.419Z,10
2017-01-27T08:44:21.787Z,10
2017-01-27T08:45:36.171Z,15
2017-01-27T08:46:50.513Z,15
2017-01-27T08:48:04.202Z,15
2017-01-27T08:49:18.537Z,20
2017-01-27T08:50:32.897Z,25
2017-01-27T08:51:47.233Z,25
2017-01-27T08:53:01.577Z,30
2017-01-27T08:54:14.641Z,35
2017-01-27T08:55:29.007Z,40
2017-01-27T08:56:42.907Z,45
2017-01-27T08:57:57.281Z,50
2017-01-27T08:59:11.657Z,55
2017-01-27T09:00:25.383Z,65
2017-01-27T09:01:39.769Z,70
2017-01-27T09:02:54.136Z,75
2017-01-27T09:04:08.544Z,80
2017-01-27T09:05:22.295Z,90
2017-01-27T09:06:36.666Z,95
2017-01-27T09:07:51.042Z,105
2017-01-27T09:09:04.750Z,110
2017-01-27T09:10:18.475Z,120
2017-01-27T09:11:32.840Z,125
2017-01-27T09:12:47.194Z,135
2017-01-27T09:14:01.546Z,140
2017-01-27T09:15:15.913Z,155
2017-01-27T09:16:30.288Z,170
2017-01-27T09:17:44.690Z,180
2017-01-27T09:18:58.492Z,185
2017-01-27T09:20:12.213Z,195
2017-01-27T09:21:26.577Z,200
2017-01-27T09:22:40.963Z,215
2017-01-27T09:23:55.331Z,230
2017-01-27T09:25:09.724Z,245
2017-01-27T09:26:22.152Z,260
2017-01-27T09:27:36.496Z,275
2017-01-27T09:28:50.856Z,285
2017-01-27T09:30:05.253Z,305
2017-01-27T09:31:18.323Z,330
2017-01-27T09:32:32.670Z,345
2017-01-27T09:33:47.036Z,365
2017-01-27T09:35:00.750Z,385
2017-01-27T09:36:14.471Z,400
2017-01-27T09:37:28.876Z,420
2017-01-27T09:38:41.944Z,445
2017-01-27T09:39:56.284Z,455
2017-01-27T09:41:10.005Z,470
2017-01-27T09:42:24.361Z,490
2017-01-27T09:43:38.072Z,510
2017-01-27T09:44:52.426Z,535
2017-01-27T09:46:06.806Z,565
2017-01-27T09:47:20.519Z,590
2017-01-27T09:48:34.889Z,600
2017-01-27T09:49:49.296Z,610
2017-01-27T09:51:03.714Z,625
2017-01-27T09:52:18.061Z,655
2017-01-27T09:53:31.767Z,710
2017-01-27T09:54:46.199Z,695
2017-01-27T09:56:00.605Z,845
2017-01-27T09:57:15.042Z,990
2017-01-27T09:58:28.814Z,1155
2017-01-27T09:59:43.175Z,1320
2017-01-27T10:00:57.521Z,1325
2017-01-27T10:02:11.236Z,1310
2017-01-27T10:03:24.958Z,1440
2017-01-27T10:04:38.658Z,1155
2017-01-27T10:05:53.017Z,1270
2017-01-27T10:07:07.411Z,1390
2017-01-27T10:08:21.137Z,1435
2017-01-27T10:09:35.570Z,1475
2017-01-27T10:10:49.933Z,1495
2017-01-27T10:12:04.300Z,1335
2017-01-27T10:13:18.644Z,1235
2017-01-27T10:14:33.027Z,1325
2017-01-27T10:15:46.779Z,1375
2017-01-27T10:17:00.526Z,1040
2017-01-27T10:18:14.870Z,1005
2017-01-27T10:19:28.608Z,1145
2017-01-27T10:20:42.941Z,1295
2017-01-27T10:21:57.352Z,1955
2017-01-27T10:23:11.767Z,1935
2017-01-27T10:24:24.916Z,1335
2017-01-27T10:25:38.653Z,1450
2017-01-27T10:26:53.050Z,1185
2017-01-27T10:28:07.440Z,1215
2017-01-27T10:29:21.176Z,1130
2017-01-27T10:30:35.574Z,1080
2017-01-27T10:31:49.933Z,1090
2017-01-27T10:33:04.470Z,1025
2017-01-27T10:34:17.558Z,1030
2017-01-27T10:35:31.931Z,1065
2017-01-27T10:36:46.338Z,1065
2017-01-27T10:38:00.044Z,945
2017-01-27T10:39:14.451Z,1085
2017-01-27T10:40:28.814Z,970
2017-01-27T10:41:43.207Z,935
2017-01-27T10:42:57.558Z,965
2017-01-27T10:44:11.881Z,1030
2017-01-27T10:45:24.950Z,1100
2017-01-27T10:46:38.647Z,1065
2017-01-27T10:47:52.388Z,1005
2017-01-27T10:49:06.731Z,995
2017-01-27T10:50:21.102Z,1010
2017-01-27T10:51:35.472Z,1025
2017-01-27T10:52:49.854Z,1035
2017-01-27T10:54:03.598Z,1030
2017-01-27T10:55:17.364Z,1020
2017-01-27T10:56:31.726Z,1045
2017-01-27T10:57:46.152Z,1060
2017-01-27T10:58:59.895Z,1335
2017-01-27T11:00:13.630Z,1100
2017-01-27T11:01:27.354Z,1010
2017-01-27T11:02:41.723Z,1030
2017-01-27T11:03:56.079Z,1095
2017-01-27T11:05:10.442Z,1300
2017-01-27T11:06:24.815Z,1435
2017-01-27T11:07:39.190Z,1560
2017-01-27T11:08:53.549Z,2395
2017-01-27T11:10:07.327Z,3425
2017-01-27T11:11:21.093Z,3690
2017-01-27T11:12:35.452Z,3505
2017-01-27T11:13:49.786Z,2520
2017-01-27T11:15:04.184Z,1865
2017-01-27T11:16:18.561Z,1670
2017-01-27T11:17:32.921Z,1665
2017-01-27T11:18:47.311Z,1640
2017-01-27T11:20:01.715Z,1965
2017-01-27T11:21:16.095Z,1670
2017-01-27T11:22:30.454Z,1645
2017-01-27T11:23:44.862Z,1560
2017-01-27T11:24:58.600Z,1505
2017-01-27T11:26:12.981Z,1535
2017-01-27T11:27:27.331Z,1530
2017-01-27T11:28:41.687Z,1455
2017-01-27T11:29:56.086Z,1425
2017-01-27T11:31:09.806Z,1475
2017-01-27T11:32:22.907Z,1480
2017-01-27T11:33:37.300Z,1495
2017-01-27T11:34:51.022Z,1455
2017-01-27T11:36:05.374Z,1385
2017-01-27T11:37:18.474Z,1300
2017-01-27T11:38:32.840Z,1255
2017-01-27T11:39:47.197Z,1285
2017-01-27T11:41:01.561Z,1240
2017-01-27T11:42:14.644Z,1195
2017-01-27T11:43:29.069Z,1135
2017-01-27T11:44:43.461Z,1115
2017-01-27T11:45:57.212Z,1140
2017-01-27T11:47:10.991Z,1100
2017-01-27T11:48:56.294Z,930
2017-01-27T11:50:09.429Z,870
2017-01-27T11:51:22.480Z,810
2017-01-27T11:52:36.316Z,765
2017-01-27T11:53:50.725Z,800
2017-01-27T11:55:05.133Z,825
2017-01-27T11:56:19.549Z,800
2017-01-27T11:57:33.295Z,765
2017-01-27T11:58:47.677Z,805
2017-01-27T12:00:02.059Z,915
2017-01-27T12:01:15.844Z,995
2017-01-27T12:02:30.296Z,1025
2017-01-27T12:03:44.676Z,1065
2017-01-27T12:04:59.067Z,1070
2017-01-27T12:06:12.187Z,1030
2017-01-27T12:07:25.276Z,970
2017-01-27T12:08:39.866Z,950
2017-01-27T12:09:54.309Z,960
2017-01-27T12:11:08.733Z,990
2017-01-27T12:12:23.125Z,1035
2017-01-27T12:13:36.190Z,1075
2017-01-27T12:14:50.560Z,1090
2017-01-27T12:16:04.944Z,1095
2017-01-27T12:17:18.733Z,1160
2017-01-27T12:18:33.092Z,1340
2017-01-27T12:19:46.834Z,1890
2017-01-27T12:21:00.565Z,2755
2017-01-27T12:22:14.369Z,2735
2017-01-27T12:23:28.115Z,2650
2017-01-27T12:24:41.854Z,3825
2017-01-27T12:25:56.294Z,2785
2017-01-27T12:27:10.047Z,2095
2017-01-27T12:28:23.145Z,1950
2017-01-27T12:29:37.592Z,1595
2017-01-27T12:30:51.922Z,1205
2017-01-27T12:32:06.314Z,1085
2017-01-27T12:33:21.060Z,1175
2017-01-27T12:34:35.444Z,1280
2017-01-27T12:35:49.780Z,1465
2017-01-27T12:37:04.127Z,1755
2017-01-27T12:38:17.850Z,2535
2017-01-27T12:39:32.269Z,2455
2017-01-27T12:40:46.661Z,4305
2017-01-27T12:42:01.122Z,2395
2017-01-27T12:43:15.855Z,2120
2017-01-27T12:44:29.622Z,2120
2017-01-27T12:45:44.201Z,1815
2017-01-27T12:46:58.016Z,1950
2017-01-27T12:48:12.427Z,3780
2017-01-27T12:49:27.527Z,3575
2017-01-27T12:50:41.876Z,3700
2017-01-27T12:51:56.268Z,2485
2017-01-27T12:53:10.634Z,1950
2017-01-27T12:54:25.024Z,1885
2017-01-27T12:55:38.728Z,1700
2017-01-27T12:56:53.104Z,2480
2017-01-27T12:58:07.527Z,1550
2017-01-27T12:59:21.914Z,1525
2017-01-27T13:00:36.351Z,1625
2017-01-27T13:01:50.726Z,1660
2017-01-27T13:03:05.083Z,1580
2017-01-27T13:04:19.537Z,1615
2017-01-27T13:05:33.901Z,1595
2017-01-27T13:06:48.340Z,1490
2017-01-27T13:08:02.067Z,1260
2017-01-27T13:09:16.489Z,1185
2017-01-27T13:10:30.273Z,1215
2017-01-27T13:11:44.012Z,1310
2017-01-27T13:12:58.389Z,1425
2017-01-27T13:14:12.123Z,1555
2017-01-27T13:15:26.611Z,1700
2017-01-27T13:16:41.641Z,2225
2017-01-27T13:17:56.091Z,1905
2017-01-27T13:19:09.822Z,1605
2017-01-27T13:20:24.212Z,1435
2017-01-27T13:21:37.980Z,1290
2017-01-27T13:22:52.349Z,1170
2017-01-27T13:24:06.756Z,1030
2017-01-27T13:25:21.351Z,915
2017-01-27T13:26:35.725Z,845
2017-01-27T13:27:50.115Z,815
2017-01-27T13:29:03.873Z,770
2017-01-27T13:30:17.628Z,710
2017-01-27T13:31:32.021Z,685
2017-01-27T13:32:46.386Z,700
2017-01-27T13:33:59.470Z,750
2017-01-27T13:35:13.888Z,830
2017-01-27T13:36:29.407Z,995
2017-01-27T13:37:43.795Z,1210
2017-01-27T13:38:59.128Z,1520
2017-01-27T13:40:13.556Z,1835
2017-01-27T13:41:27.303Z,2060
2017-01-27T13:42:41.059Z,2055
2017-01-27T13:43:55.415Z,2140
2017-01-27T13:45:09.785Z,2350
2017-01-27T13:46:24.875Z,2700
2017-01-27T13:47:39.255Z,2680
2017-01-27T13:48:53.644Z,2515
2017-01-27T13:50:08.014Z,2495
2017-01-27T13:51:21.759Z,2430
2017-01-27T13:52:36.120Z,2640
2017-01-27T13:53:49.840Z,2395
2017-01-27T13:55:04.199Z,1815
2017-01-27T13:56:18.587Z,1580
2017-01-27T13:57:32.962Z,1480
2017-01-27T13:58:47.350Z,1470
2017-01-27T14:00:01.716Z,1540
2017-01-27T14:01:15.440Z,1705
2017-01-27T14:02:29.800Z,1975
2017-01-27T14:03:44.199Z,2010
2017-01-27T14:04:57.295Z,1630
2017-01-27T14:06:11.030Z,1410
2017-01-27T14:07:24.123Z,1280
2017-01-27T14:08:38.545Z,1180
2017-01-27T14:09:52.940Z,1150
2017-01-27T14:11:07.290Z,1115
2017-01-27T14:12:21.010Z,1140
2017-01-27T14:13:35.380Z,1120
2017-01-27T14:14:49.750Z,1075
2017-01-27T14:16:04.124Z,1120
2017-01-27T14:17:18.493Z,1150
2017-01-27T14:18:32.857Z,1250
2017-01-27T14:19:47.215Z,1345
2017-01-27T14:21:01.576Z,1425
2017-01-27T14:22:15.980Z,1430
2017-01-27T14:23:29.731Z,1360
2017-01-27T14:24:44.168Z,1315
2017-01-27T14:25:58.510Z,1345
2017-01-27T14:27:12.911Z,1570
2017-01-27T14:28:27.328Z,1735
2017-01-27T14:29:41.048Z,1805
2017-01-27T14:30:54.785Z,1870
2017-01-27T14:32:08.490Z,1790
2017-01-27T14:33:24.590Z,1685
2017-01-27T14:34:38.323Z,1725
2017-01-27T14:35:52.080Z,1675
2017-01-27T14:37:08.269Z,1295
2017-01-27T14:38:22.049Z,940
2017-01-27T14:39:36.426Z,760
2017-01-27T14:40:50.797Z,750
2017-01-27T14:42:04.537Z,895
2017-01-27T14:43:17.657Z,1050
2017-01-27T14:44:32.023Z,1010
2017-01-27T14:45:45.774Z,770
2017-01-27T14:47:00.144Z,505
2017-01-27T14:48:13.858Z,315
2017-01-27T14:49:28.227Z,225
2017-01-27T14:50:42.600Z,190
2017-01-27T14:51:56.981Z,195
2017-01-27T14:53:10.762Z,225
2017-01-27T14:54:25.163Z,250
2017-01-27T14:55:39.579Z,285
2017-01-27T14:56:53.951Z,370
2017-01-27T14:58:08.387Z,495
2017-01-27T14:59:22.115Z,625
2017-01-27T15:00:36.687Z,730
2017-01-27T15:01:51.073Z,775
2017-01-27T15:03:05.471Z,765
2017-01-27T15:04:19.187Z,750
2017-01-27T15:05:33.609Z,730
2017-01-27T15:06:47.969Z,695
2017-01-27T15:08:02.337Z,630
2017-01-27T15:09:16.720Z,565
2017-01-27T15:10:31.083Z,505
2017-01-27T15:11:45.476Z,460
2017-01-27T15:12:59.852Z,425
2017-01-27T15:14:13.577Z,410
2017-01-27T15:15:27.944Z,420
2017-01-27T15:16:42.349Z,435
2017-01-27T15:17:56.753Z,430
2017-01-27T15:19:09.843Z,425
2017-01-27T15:20:24.241Z,425
2017-01-27T15:21:38.637Z,455
2017-01-27T15:22:53.044Z,480
2017-01-27T15:24:07.381Z,580
2017-01-27T15:25:21.735Z,700
2017-01-27T15:26:36.701Z,800
2017-01-27T15:27:52.915Z,915
2017-01-27T15:29:07.265Z,1005
2017-01-27T15:30:20.963Z,1090
2017-01-27T15:31:34.713Z,1115
2017-01-27T15:32:49.170Z,1085
2017-01-27T15:34:02.887Z,980
2017-01-27T15:35:16.625Z,860
2017-01-27T15:36:31.013Z,765
2017-01-27T15:37:44.779Z,720
2017-01-27T15:38:59.197Z,790
2017-01-27T15:40:12.892Z,970
2017-01-27T15:41:26.579Z,1105
2017-01-27T15:42:40.962Z,1095
2017-01-27T15:43:55.359Z,1020
2017-01-27T15:45:09.703Z,945
2017-01-27T15:46:24.093Z,910
2017-01-27T15:47:37.867Z,945
2017-01-27T15:48:52.249Z,990
2017-01-27T15:50:05.503Z,1040
2017-01-27T15:51:17.970Z,1100
2017-01-27T15:52:31.684Z,1160
2017-01-27T15:53:46.144Z,1190
2017-01-27T15:55:00.544Z,1170
2017-01-27T15:56:14.869Z,1155
2017-01-27T15:57:29.243Z,1130
2017-01-27T15:58:42.374Z,1090
2017-01-27T15:59:56.110Z,1040
2017-01-27T16:01:10.490Z,940
2017-01-27T16:02:24.894Z,815
2017-01-27T16:03:39.248Z,705
2017-01-27T16:04:53.623Z,655
2017-01-27T16:06:07.336Z,620
2017-01-27T16:07:21.252Z,575
2017-01-27T16:08:35.622Z,530
2017-01-27T16:09:50.030Z,505
2017-01-27T16:11:04.545Z,495
2017-01-27T16:12:17.628Z,470
2017-01-27T16:13:32.054Z,430
2017-01-27T16:14:46.429Z,375
2017-01-27T16:16:00.878Z,340
2017-01-27T16:17:15.272Z,320
2017-01-27T16:18:29.034Z,300
2017-01-27T16:19:43.378Z,300
2017-01-27T16:20:57.100Z,325
2017-01-27T16:22:10.175Z,335
2017-01-27T16:23:24.569Z,340
2017-01-27T16:24:38.948Z,365
2017-01-27T16:25:53.333Z,395
2017-01-27T16:27:07.081Z,420
2017-01-27T16:28:20.768Z,450
2017-01-27T16:29:35.122Z,470
2017-01-27T16:30:49.503Z,520
2017-01-27T16:32:03.854Z,560
2017-01-27T16:33:18.205Z,535
2017-01-27T16:34:32.590Z,475
2017-01-27T16:35:46.945Z,380
2017-01-27T16:37:01.309Z,335
2017-01-27T16:38:15.039Z,305
2017-01-27T16:39:29.457Z,235
2017-01-27T16:40:43.823Z,190
2017-01-27T16:41:58.215Z,190
2017-01-27T16:43:12.577Z,230
2017-01-27T16:44:25.630Z,265
2017-01-27T16:45:39.978Z,330
2017-01-27T16:46:54.311Z,365
2017-01-27T16:48:08.716Z,350
2017-01-27T16:49:21.189Z,340
2017-01-27T16:50:35.605Z,320
2017-01-27T16:51:49.975Z,300
2017-01-27T16:53:04.403Z,310
2017-01-27T16:54:18.767Z,360
2017-01-27T16:55:32.540Z,435
2017-01-27T16:56:46.371Z,515
2017-01-27T16:58:00.763Z,610
2017-01-27T16:59:15.138Z,745
2017-01-27T17:00:28.876Z,915
2017-01-27T17:01:43.255Z,1125
2017-01-27T17:02:57.002Z,1265
2017-01-27T17:04:11.365Z,1240
2017-01-27T17:05:24.424Z,1080
2017-01-27T17:06:38.779Z,885
2017-01-27T17:07:53.149Z,735
2017-01-27T17:09:07.505Z,595
2017-01-27T17:10:21.863Z,460
2017-01-27T17:11:36.269Z,380
2017-01-27T17:12:50.706Z,355
2017-01-27T17:14:05.093Z,370
2017-01-27T17:15:18.271Z,405
2017-01-27T17:16:32.604Z,440
2017-01-27T17:17:46.942Z,475
2017-01-27T17:19:01.341Z,465
2017-01-27T17:20:14.459Z,455
2017-01-27T17:21:28.844Z,460
2017-01-27T17:22:43.272Z,465
2017-01-27T17:23:57.648Z,430
2017-01-27T17:25:12.010Z,390
2017-01-27T17:26:25.776Z,355
2017-01-27T17:27:39.797Z,345
2017-01-27T17:28:54.216Z,330
2017-01-27T17:30:08.592Z,305
2017-01-27T17:31:22.918Z,265
2017-01-27T17:32:37.295Z,250
2017-01-27T17:33:51.918Z,280
2017-01-27T17:35:06.332Z,335
2017-01-27T17:36:20.707Z,420
2017-01-27T17:37:35.887Z,495
2017-01-27T17:38:50.276Z,535
2017-01-27T17:40:04.684Z,595
2017-01-27T17:41:19.083Z,675
2017-01-27T17:42:32.844Z,775
2017-01-27T17:43:47.248Z,850
2017-01-27T17:45:00.999Z,885
2017-01-27T17:46:15.341Z,940
2017-01-27T17:47:29.668Z,1000
2017-01-27T17:48:44.038Z,1040
2017-01-27T17:49:58.445Z,1065
2017-01-27T17:51:12.767Z,1055
2017-01-27T17:52:26.480Z,1055
2017-01-27T17:53:40.842Z,1040
2017-01-27T17:54:55.205Z,1080
2017-01-27T17:56:09.629Z,1180
2017-01-27T17:57:23.983Z,1285